sensor_id;sensor_type;location;lat;lon;timestamp;temperature;humidity
6865;DHT22;3471;49.678;8.388;2023-03-31T00:00:43;13.30;99.90
6865;DHT22;3471;49.678;8.388;2023-03-31T00:03:09;13.30;99.90
6865;DHT22;3471;49.678;8.388;2023-03-31T00:05:47;13.40;99.90
6865;DHT22;3471;49.678;8.388;2023-03-31T00:08:13;13.40;99.90
6865;DHT22;3471;49.678;8.388;2023-03-31T00:10:44;13.30;99.90
6865;DHT22;3471;49.678;8.388;2023-03-31T00:13:10;13.30;99.90
6865;DHT22;3471;49.678;8.388;2023-03-31T00:15:36;13.30;99.90
6865;DHT22;3471;49.678;8.388;2023-03-31T00:18:02;13.30;99.90
6865;DHT22;3471;49.678;8.388;2023-03-31T00:20:28;13.30;99.90
6865;DHT22;3471;49.678;8.388;2023-03-31T00:22:53;13.30;99.90
6865;DHT22;3471;49.678;8.388;2023-03-31T00:25:22;13.30;99.90
6865;DHT22;3471;49.678;8.388;2023-03-31T00:27:47;13.20;99.90
6865;DHT22;3471;49.678;8.388;2023-03-31T00:30:15;13.20;99.90
6865;DHT22;3471;49.678;8.388;2023-03-31T00:32:41;13.20;99.90
6865;DHT22;3471;49.678;8.388;2023-03-31T00:35:07;13.20;99.90
6865;DHT22;3471;49.678;8.388;2023-03-31T00:37:33;13.20;99.90
6865;DHT22;3471;49.678;8.388;2023-03-31T00:39:59;13.20;99.90
6865;DHT22;3471;49.678;8.388;2023-03-31T00:42:25;13.20;99.90
6865;DHT22;3471;49.678;8.388;2023-03-31T00:45:29;13.10;99.90
6865;DHT22;3471;49.678;8.388;2023-03-31T00:50:26;13.10;99.90
6865;DHT22;3471;49.678;8.388;2023-03-31T00:53:00;13.00;99.90
6865;DHT22;3471;49.678;8.388;2023-03-31T00:55:32;13.00;99.90
6865;DHT22;3471;49.678;8.388;2023-03-31T00:57:59;13.00;99.90
6865;DHT22;3471;49.678;8.388;2023-03-31T01:00:26;13.00;99.90
6865;DHT22;3471;49.678;8.388;2023-03-31T01:02:57;13.10;99.90
6865;DHT22;3471;49.678;8.388;2023-03-31T01:05:43;13.10;99.90
6865;DHT22;3471;49.678;8.388;2023-03-31T01:08:10;13.10;99.90
6865;DHT22;3471;49.678;8.388;2023-03-31T01:10:40;13.10;99.90
6865;DHT22;3471;49.678;8.388;2023-03-31T01:13:10;13.10;99.90
6865;DHT22;3471;49.678;8.388;2023-03-31T01:15:37;13.10;99.90
6865;DHT22;3471;49.678;8.388;2023-03-31T01:18:04;13.20;99.90
6865;DHT22;3471;49.678;8.388;2023-03-31T01:43:46;13.40;99.90
6865;DHT22;3471;49.678;8.388;2023-03-31T01:46:35;13.40;99.90
6865;DHT22;3471;49.678;8.388;2023-03-31T01:49:06;13.40;99.90
6865;DHT22;3471;49.678;8.388;2023-03-31T01:51:58;13.50;99.90
6865;DHT22;3471;49.678;8.388;2023-03-31T01:54:36;13.50;99.90
6865;DHT22;3471;49.678;8.388;2023-03-31T01:57:17;13.60;99.90
6865;DHT22;3471;49.678;8.388;2023-03-31T01:59:54;13.60;99.90
6865;DHT22;3471;49.678;8.388;2023-03-31T02:02:27;13.60;99.90
6865;DHT22;3471;49.678;8.388;2023-03-31T02:04:59;13.60;99.90
6865;DHT22;3471;49.678;8.388;2023-03-31T02:07:45;13.60;99.90
6865;DHT22;3471;49.678;8.388;2023-03-31T02:10:14;13.50;99.90
6865;DHT22;3471;49.678;8.388;2023-03-31T02:12:42;13.50;99.90
6865;DHT22;3471;49.678;8.388;2023-03-31T02:15:13;13.50;99.90
6865;DHT22;3471;49.678;8.388;2023-03-31T02:17:41;13.50;99.90
6865;DHT22;3471;49.678;8.388;2023-03-31T02:20:11;13.50;99.90
6865;DHT22;3471;49.678;8.388;2023-03-31T02:22:42;13.50;99.90
6865;DHT22;3471;49.678;8.388;2023-03-31T02:25:13;13.50;99.90
6865;DHT22;3471;49.678;8.388;2023-03-31T02:27:42;13.50;99.90
6865;DHT22;3471;49.678;8.388;2023-03-31T02:30:11;13.50;99.90
6865;DHT22;3471;49.678;8.388;2023-03-31T02:32:40;13.50;99.90
6865;DHT22;3471;49.678;8.388;2023-03-31T02:35:13;13.50;99.90
6865;DHT22;3471;49.678;8.388;2023-03-31T02:37:40;13.50;99.90
6865;DHT22;3471;49.678;8.388;2023-03-31T02:40:10;13.50;99.90
6865;DHT22;3471;49.678;8.388;2023-03-31T02:42:38;13.40;99.90
6865;DHT22;3471;49.678;8.388;2023-03-31T02:45:06;13.40;99.90
6865;DHT22;3471;49.678;8.388;2023-03-31T02:47:32;13.30;99.90
6865;DHT22;3471;49.678;8.388;2023-03-31T02:50:00;13.30;99.90
6865;DHT22;3471;49.678;8.388;2023-03-31T02:58:51;13.20;99.90
6865;DHT22;3471;49.678;8.388;2023-03-31T03:03:57;13.30;99.90
6865;DHT22;3471;49.678;8.388;2023-03-31T03:07:07;13.30;99.90
6865;DHT22;3471;49.678;8.388;2023-03-31T03:09:49;13.30;99.90
6865;DHT22;3471;49.678;8.388;2023-03-31T03:12:24;13.30;99.90
6865;DHT22;3471;49.678;8.388;2023-03-31T03:17:59;13.30;99.90
6865;DHT22;3471;49.678;8.388;2023-03-31T03:20:26;13.30;99.90
6865;DHT22;3471;49.678;8.388;2023-03-31T03:22:51;13.30;99.90
6865;DHT22;3471;49.678;8.388;2023-03-31T03:25:17;13.40;99.90
6865;DHT22;3471;49.678;8.388;2023-03-31T03:27:44;13.30;99.90
6865;DHT22;3471;49.678;8.388;2023-03-31T03:30:11;13.30;99.90
6865;DHT22;3471;49.678;8.388;2023-03-31T03:32:37;13.30;99.90
6865;DHT22;3471;49.678;8.388;2023-03-31T03:35:04;13.30;99.90
6865;DHT22;3471;49.678;8.388;2023-03-31T03:37:30;13.30;99.90
6865;DHT22;3471;49.678;8.388;2023-03-31T03:39:56;13.30;99.90
6865;DHT22;3471;49.678;8.388;2023-03-31T03:42:22;13.30;99.90
6865;DHT22;3471;49.678;8.388;2023-03-31T03:44:47;13.40;99.90
6865;DHT22;3471;49.678;8.388;2023-03-31T03:47:13;13.30;99.90
6865;DHT22;3471;49.678;8.388;2023-03-31T03:49:39;13.40;99.90
6865;DHT22;3471;49.678;8.388;2023-03-31T03:52:04;13.30;99.90
6865;DHT22;3471;49.678;8.388;2023-03-31T03:54:30;13.40;99.90
6865;DHT22;3471;49.678;8.388;2023-03-31T03:56:56;13.30;99.90
6865;DHT22;3471;49.678;8.388;2023-03-31T03:59:22;13.30;99.90
6865;DHT22;3471;49.678;8.388;2023-03-31T04:01:47;13.20;99.90
6865;DHT22;3471;49.678;8.388;2023-03-31T04:04:13;13.20;99.90
6865;DHT22;3471;49.678;8.388;2023-03-31T04:06:39;13.20;99.90
6865;DHT22;3471;49.678;8.388;2023-03-31T04:09:05;13.20;99.90
6865;DHT22;3471;49.678;8.388;2023-03-31T04:11:31;13.20;99.90
6865;DHT22;3471;49.678;8.388;2023-03-31T04:13:56;13.20;99.90
6865;DHT22;3471;49.678;8.388;2023-03-31T04:16:22;13.20;99.90
6865;DHT22;3471;49.678;8.388;2023-03-31T04:18:52;13.20;99.90
6865;DHT22;3471;49.678;8.388;2023-03-31T04:21:21;13.20;99.90
6865;DHT22;3471;49.678;8.388;2023-03-31T04:23:48;13.20;99.90
6865;DHT22;3471;49.678;8.388;2023-03-31T04:26:16;13.10;99.90
6865;DHT22;3471;49.678;8.388;2023-03-31T04:28:43;13.10;99.90
6865;DHT22;3471;49.678;8.388;2023-03-31T04:31:12;13.10;99.90
6865;DHT22;3471;49.678;8.388;2023-03-31T04:33:53;13.10;99.90
6865;DHT22;3471;49.678;8.388;2023-03-31T04:36:19;13.00;99.90
6865;DHT22;3471;49.678;8.388;2023-03-31T04:38:46;13.10;99.90
6865;DHT22;3471;49.678;8.388;2023-03-31T04:41:15;13.00;99.90
6865;DHT22;3471;49.678;8.388;2023-03-31T04:43:42;13.00;99.90
6865;DHT22;3471;49.678;8.388;2023-03-31T04:46:07;13.00;99.90
6865;DHT22;3471;49.678;8.388;2023-03-31T04:48:33;13.10;99.90
6865;DHT22;3471;49.678;8.388;2023-03-31T04:50:59;13.00;99.90
6865;DHT22;3471;49.678;8.388;2023-03-31T04:53:24;13.00;99.90
6865;DHT22;3471;49.678;8.388;2023-03-31T04:55:51;13.00;99.90
6865;DHT22;3471;49.678;8.388;2023-03-31T04:58:17;13.00;99.90
6865;DHT22;3471;49.678;8.388;2023-03-31T05:00:43;13.00;99.90
6865;DHT22;3471;49.678;8.388;2023-03-31T05:03:08;13.00;99.90
6865;DHT22;3471;49.678;8.388;2023-03-31T05:05:35;12.90;99.90
6865;DHT22;3471;49.678;8.388;2023-03-31T05:08:01;12.90;99.90
6865;DHT22;3471;49.678;8.388;2023-03-31T05:10:27;12.90;99.90
6865;DHT22;3471;49.678;8.388;2023-03-31T05:12:52;12.80;99.90
6865;DHT22;3471;49.678;8.388;2023-03-31T05:15:18;12.80;99.90
6865;DHT22;3471;49.678;8.388;2023-03-31T05:17:43;12.80;99.90
6865;DHT22;3471;49.678;8.388;2023-03-31T05:20:09;12.70;99.90
6865;DHT22;3471;49.678;8.388;2023-03-31T05:22:36;12.70;99.90
6865;DHT22;3471;49.678;8.388;2023-03-31T05:25:04;12.70;99.90
6865;DHT22;3471;49.678;8.388;2023-03-31T05:27:31;12.70;99.90
6865;DHT22;3471;49.678;8.388;2023-03-31T05:29:57;12.60;99.90
6865;DHT22;3471;49.678;8.388;2023-03-31T05:32:23;12.60;99.90
6865;DHT22;3471;49.678;8.388;2023-03-31T05:34:48;12.60;99.90
6865;DHT22;3471;49.678;8.388;2023-03-31T05:37:17;12.50;99.90
6865;DHT22;3471;49.678;8.388;2023-03-31T05:39:43;12.40;99.90
6865;DHT22;3471;49.678;8.388;2023-03-31T05:42:08;12.40;99.90
6865;DHT22;3471;49.678;8.388;2023-03-31T05:44:34;12.40;99.90
6865;DHT22;3471;49.678;8.388;2023-03-31T05:46:59;12.40;99.90
6865;DHT22;3471;49.678;8.388;2023-03-31T05:49:25;12.40;99.90
6865;DHT22;3471;49.678;8.388;2023-03-31T05:51:51;12.30;99.90
6865;DHT22;3471;49.678;8.388;2023-03-31T05:54:18;12.20;99.90
6865;DHT22;3471;49.678;8.388;2023-03-31T05:56:43;12.20;99.90
6865;DHT22;3471;49.678;8.388;2023-03-31T05:59:09;12.20;99.90
6865;DHT22;3471;49.678;8.388;2023-03-31T06:01:34;12.10;99.90
6865;DHT22;3471;49.678;8.388;2023-03-31T06:04:00;12.10;99.90
6865;DHT22;3471;49.678;8.388;2023-03-31T06:06:26;12.00;99.90
6865;DHT22;3471;49.678;8.388;2023-03-31T06:08:52;12.00;99.90
6865;DHT22;3471;49.678;8.388;2023-03-31T06:11:20;12.00;99.90
6865;DHT22;3471;49.678;8.388;2023-03-31T06:13:46;11.90;99.90
6865;DHT22;3471;49.678;8.388;2023-03-31T06:16:14;11.90;99.90
6865;DHT22;3471;49.678;8.388;2023-03-31T06:18:40;11.90;99.90
6865;DHT22;3471;49.678;8.388;2023-03-31T06:21:06;12.00;99.90
6865;DHT22;3471;49.678;8.388;2023-03-31T06:23:33;12.00;99.90
6865;DHT22;3471;49.678;8.388;2023-03-31T06:26:04;12.00;99.90
6865;DHT22;3471;49.678;8.388;2023-03-31T06:28:31;12.00;99.90
6865;DHT22;3471;49.678;8.388;2023-03-31T06:31:04;12.10;99.90
6865;DHT22;3471;49.678;8.388;2023-03-31T06:33:31;12.10;99.90
6865;DHT22;3471;49.678;8.388;2023-03-31T06:35:57;12.10;99.90
6865;DHT22;3471;49.678;8.388;2023-03-31T06:38:24;12.10;99.90
6865;DHT22;3471;49.678;8.388;2023-03-31T06:40:50;12.10;99.90
6865;DHT22;3471;49.678;8.388;2023-03-31T06:43:16;12.10;99.90
6865;DHT22;3471;49.678;8.388;2023-03-31T06:45:41;12.20;99.90
6865;DHT22;3471;49.678;8.388;2023-03-31T06:48:07;12.20;99.90
6865;DHT22;3471;49.678;8.388;2023-03-31T06:50:32;12.20;99.90
6865;DHT22;3471;49.678;8.388;2023-03-31T06:52:58;12.20;99.90
6865;DHT22;3471;49.678;8.388;2023-03-31T06:55:24;12.20;99.90
6865;DHT22;3471;49.678;8.388;2023-03-31T06:57:50;12.20;99.90
6865;DHT22;3471;49.678;8.388;2023-03-31T07:00:16;12.20;99.90
6865;DHT22;3471;49.678;8.388;2023-03-31T07:02:42;12.10;99.90
6865;DHT22;3471;49.678;8.388;2023-03-31T07:05:07;12.10;99.90
6865;DHT22;3471;49.678;8.388;2023-03-31T07:07:33;12.00;99.90
6865;DHT22;3471;49.678;8.388;2023-03-31T07:09:59;12.00;99.90
6865;DHT22;3471;49.678;8.388;2023-03-31T07:12:24;11.90;99.90
6865;DHT22;3471;49.678;8.388;2023-03-31T07:14:50;11.90;99.90
6865;DHT22;3471;49.678;8.388;2023-03-31T07:17:16;11.90;99.90
6865;DHT22;3471;49.678;8.388;2023-03-31T07:19:42;11.90;99.90
6865;DHT22;3471;49.678;8.388;2023-03-31T07:22:12;11.90;99.90
6865;DHT22;3471;49.678;8.388;2023-03-31T07:24:39;11.90;99.90
6865;DHT22;3471;49.678;8.388;2023-03-31T07:27:04;11.80;99.90
6865;DHT22;3471;49.678;8.388;2023-03-31T07:29:30;11.80;99.90
6865;DHT22;3471;49.678;8.388;2023-03-31T07:31:56;11.80;99.90
6865;DHT22;3471;49.678;8.388;2023-03-31T07:34:21;11.70;99.90
6865;DHT22;3471;49.678;8.388;2023-03-31T07:36:47;11.50;99.90
6865;DHT22;3471;49.678;8.388;2023-03-31T07:39:13;11.30;99.90
6865;DHT22;3471;49.678;8.388;2023-03-31T07:41:38;11.30;99.90
6865;DHT22;3471;49.678;8.388;2023-03-31T07:44:04;11.20;99.90
6865;DHT22;3471;49.678;8.388;2023-03-31T07:46:30;11.30;99.90
6865;DHT22;3471;49.678;8.388;2023-03-31T07:48:56;11.30;99.90
6865;DHT22;3471;49.678;8.388;2023-03-31T07:51:25;11.30;99.90
6865;DHT22;3471;49.678;8.388;2023-03-31T07:53:51;11.40;99.90
6865;DHT22;3471;49.678;8.388;2023-03-31T07:56:22;11.40;99.90
6865;DHT22;3471;49.678;8.388;2023-03-31T07:58:48;11.50;99.90
6865;DHT22;3471;49.678;8.388;2023-03-31T08:01:17;11.70;99.90
6865;DHT22;3471;49.678;8.388;2023-03-31T08:03:46;11.80;99.90
6865;DHT22;3471;49.678;8.388;2023-03-31T08:06:19;11.80;99.90
6865;DHT22;3471;49.678;8.388;2023-03-31T08:08:46;11.90;99.90
6865;DHT22;3471;49.678;8.388;2023-03-31T08:11:12;12.00;99.90
6865;DHT22;3471;49.678;8.388;2023-03-31T08:13:38;12.00;99.90
6865;DHT22;3471;49.678;8.388;2023-03-31T08:16:04;12.10;99.90
6865;DHT22;3471;49.678;8.388;2023-03-31T08:18:29;12.10;99.90
6865;DHT22;3471;49.678;8.388;2023-03-31T08:20:55;12.10;99.90
6865;DHT22;3471;49.678;8.388;2023-03-31T08:23:20;12.10;99.90
6865;DHT22;3471;49.678;8.388;2023-03-31T08:25:46;12.10;99.90
6865;DHT22;3471;49.678;8.388;2023-03-31T08:28:12;12.20;99.90
6865;DHT22;3471;49.678;8.388;2023-03-31T08:30:42;12.20;99.90
6865;DHT22;3471;49.678;8.388;2023-03-31T08:33:08;12.30;99.90
6865;DHT22;3471;49.678;8.388;2023-03-31T08:35:34;12.30;99.90
6865;DHT22;3471;49.678;8.388;2023-03-31T08:38:00;12.40;99.90
6865;DHT22;3471;49.678;8.388;2023-03-31T08:40:31;12.40;99.90
6865;DHT22;3471;49.678;8.388;2023-03-31T08:43:04;12.50;99.90
6865;DHT22;3471;49.678;8.388;2023-03-31T08:45:33;12.60;99.90
6865;DHT22;3471;49.678;8.388;2023-03-31T08:48:24;12.70;99.90
6865;DHT22;3471;49.678;8.388;2023-03-31T08:50:53;12.70;99.90
6865;DHT22;3471;49.678;8.388;2023-03-31T08:53:23;12.70;99.90
6865;DHT22;3471;49.678;8.388;2023-03-31T08:55:51;12.70;99.90
6865;DHT22;3471;49.678;8.388;2023-03-31T09:06:12;13.40;99.90
6865;DHT22;3471;49.678;8.388;2023-03-31T09:08:41;13.40;99.90
6865;DHT22;3471;49.678;8.388;2023-03-31T09:11:14;13.50;99.90
6865;DHT22;3471;49.678;8.388;2023-03-31T09:16:55;13.50;99.90
6865;DHT22;3471;49.678;8.388;2023-03-31T09:19:35;13.50;99.90
6865;DHT22;3471;49.678;8.388;2023-03-31T09:22:03;13.40;99.90
6865;DHT22;3471;49.678;8.388;2023-03-31T09:27:29;13.40;99.90
6865;DHT22;3471;49.678;8.388;2023-03-31T09:32:42;13.20;99.90
6865;DHT22;3471;49.678;8.388;2023-03-31T09:35:18;13.10;99.90
6865;DHT22;3471;49.678;8.388;2023-03-31T09:37:46;13.00;99.90
6865;DHT22;3471;49.678;8.388;2023-03-31T09:40:18;12.80;99.90
6865;DHT22;3471;49.678;8.388;2023-03-31T09:42:47;12.60;99.90
6865;DHT22;3471;49.678;8.388;2023-03-31T09:45:19;12.30;99.90
6865;DHT22;3471;49.678;8.388;2023-03-31T09:47:53;12.20;99.90
6865;DHT22;3471;49.678;8.388;2023-03-31T09:50:21;12.00;99.90
6865;DHT22;3471;49.678;8.388;2023-03-31T09:52:50;11.80;99.90
6865;DHT22;3471;49.678;8.388;2023-03-31T09:57:47;11.70;99.90
6865;DHT22;3471;49.678;8.388;2023-03-31T10:00:14;11.70;99.90
6865;DHT22;3471;49.678;8.388;2023-03-31T10:02:54;11.80;99.90
6865;DHT22;3471;49.678;8.388;2023-03-31T10:05:23;11.90;99.90
6865;DHT22;3471;49.678;8.388;2023-03-31T10:07:50;12.00;99.90
6865;DHT22;3471;49.678;8.388;2023-03-31T10:10:34;12.20;99.90
6865;DHT22;3471;49.678;8.388;2023-03-31T10:13:06;12.30;99.90
6865;DHT22;3471;49.678;8.388;2023-03-31T10:15:36;12.50;99.90
6865;DHT22;3471;49.678;8.388;2023-03-31T10:18:02;12.70;99.90
6865;DHT22;3471;49.678;8.388;2023-03-31T10:20:32;12.90;99.90
6865;DHT22;3471;49.678;8.388;2023-03-31T10:23:03;13.20;99.90
6865;DHT22;3471;49.678;8.388;2023-03-31T10:25:32;13.40;99.90
6865;DHT22;3471;49.678;8.388;2023-03-31T10:28:00;13.60;99.90
6865;DHT22;3471;49.678;8.388;2023-03-31T10:30:33;13.80;99.90
6865;DHT22;3471;49.678;8.388;2023-03-31T10:33:04;14.00;99.90
6865;DHT22;3471;49.678;8.388;2023-03-31T10:35:34;14.10;99.90
6865;DHT22;3471;49.678;8.388;2023-03-31T10:38:09;14.20;99.90
6865;DHT22;3471;49.678;8.388;2023-03-31T10:40:36;14.40;99.90
6865;DHT22;3471;49.678;8.388;2023-03-31T10:43:20;14.50;99.90
6865;DHT22;3471;49.678;8.388;2023-03-31T10:45:51;14.40;99.90
6865;DHT22;3471;49.678;8.388;2023-03-31T10:48:28;14.40;99.90
6865;DHT22;3471;49.678;8.388;2023-03-31T10:51:20;14.40;99.90
6865;DHT22;3471;49.678;8.388;2023-03-31T10:53:50;14.40;99.90
6865;DHT22;3471;49.678;8.388;2023-03-31T11:12:20;14.80;99.90
6865;DHT22;3471;49.678;8.388;2023-03-31T11:14:57;14.80;99.90
6865;DHT22;3471;49.678;8.388;2023-03-31T11:20:08;14.80;99.90
6865;DHT22;3471;49.678;8.388;2023-03-31T11:22:47;14.80;99.90
6865;DHT22;3471;49.678;8.388;2023-03-31T11:25:38;14.90;99.90
6865;DHT22;3471;49.678;8.388;2023-03-31T11:31:24;15.00;99.90
6865;DHT22;3471;49.678;8.388;2023-03-31T11:42:01;15.40;99.90
6865;DHT22;3471;49.678;8.388;2023-03-31T11:44:41;15.40;99.90
6865;DHT22;3471;49.678;8.388;2023-03-31T11:47:27;15.50;99.90
6865;DHT22;3471;49.678;8.388;2023-03-31T11:50:05;15.70;99.90
6865;DHT22;3471;49.678;8.388;2023-03-31T11:52:38;15.90;99.90
6865;DHT22;3471;49.678;8.388;2023-03-31T12:00:54;16.00;99.90
6865;DHT22;3471;49.678;8.388;2023-03-31T12:03:40;15.90;99.90
6865;DHT22;3471;49.678;8.388;2023-03-31T12:06:18;15.80;99.90
6865;DHT22;3471;49.678;8.388;2023-03-31T12:09:01;15.60;99.90
6865;DHT22;3471;49.678;8.388;2023-03-31T12:11:52;15.50;99.90
6865;DHT22;3471;49.678;8.388;2023-03-31T12:14:22;15.40;99.90
6865;DHT22;3471;49.678;8.388;2023-03-31T12:17:07;15.40;99.90
6865;DHT22;3471;49.678;8.388;2023-03-31T12:22:23;15.50;99.90
6865;DHT22;3471;49.678;8.388;2023-03-31T12:24:51;15.50;99.90
6865;DHT22;3471;49.678;8.388;2023-03-31T12:27:26;15.50;99.90
6865;DHT22;3471;49.678;8.388;2023-03-31T12:29:59;15.80;99.90
6865;DHT22;3471;49.678;8.388;2023-03-31T12:32:29;16.10;99.90
6865;DHT22;3471;49.678;8.388;2023-03-31T12:35:03;16.40;99.90
6865;DHT22;3471;49.678;8.388;2023-03-31T12:40:49;16.60;99.90
6865;DHT22;3471;49.678;8.388;2023-03-31T12:51:59;16.90;99.90
6865;DHT22;3471;49.678;8.388;2023-03-31T12:54:41;16.80;99.90
6865;DHT22;3471;49.678;8.388;2023-03-31T12:57:18;16.70;99.90
6865;DHT22;3471;49.678;8.388;2023-03-31T12:59:45;16.50;99.90
6865;DHT22;3471;49.678;8.388;2023-03-31T13:04:40;16.40;99.90
6865;DHT22;3471;49.678;8.388;2023-03-31T13:07:33;16.30;99.90
6865;DHT22;3471;49.678;8.388;2023-03-31T13:10:22;16.20;99.90
6865;DHT22;3471;49.678;8.388;2023-03-31T13:13:12;16.20;99.90
6865;DHT22;3471;49.678;8.388;2023-03-31T13:15:38;16.00;99.90
6865;DHT22;3471;49.678;8.388;2023-03-31T13:18:12;15.80;99.90
6865;DHT22;3471;49.678;8.388;2023-03-31T13:20:42;15.60;99.90
6865;DHT22;3471;49.678;8.388;2023-03-31T13:23:18;15.40;99.90
6865;DHT22;3471;49.678;8.388;2023-03-31T13:25:45;15.30;99.90
6865;DHT22;3471;49.678;8.388;2023-03-31T13:28:17;15.20;99.90
6865;DHT22;3471;49.678;8.388;2023-03-31T13:30:48;15.10;99.90
6865;DHT22;3471;49.678;8.388;2023-03-31T13:38:57;14.80;99.90
6865;DHT22;3471;49.678;8.388;2023-03-31T13:49:49;15.00;99.90
6865;DHT22;3471;49.678;8.388;2023-03-31T13:52:30;15.10;99.90
6865;DHT22;3471;49.678;8.388;2023-03-31T13:55:03;15.10;99.90
6865;DHT22;3471;49.678;8.388;2023-03-31T14:08:45;15.10;99.90
6865;DHT22;3471;49.678;8.388;2023-03-31T14:14:02;15.00;99.90
6865;DHT22;3471;49.678;8.388;2023-03-31T14:16:30;15.00;99.90
6865;DHT22;3471;49.678;8.388;2023-03-31T14:19:15;15.20;99.90
6865;DHT22;3471;49.678;8.388;2023-03-31T14:24:49;16.30;99.90
6865;DHT22;3471;49.678;8.388;2023-03-31T14:30:25;17.30;99.90
6865;DHT22;3471;49.678;8.388;2023-03-31T14:35:45;17.80;99.90
6865;DHT22;3471;49.678;8.388;2023-03-31T14:38:19;17.70;99.90
6865;DHT22;3471;49.678;8.388;2023-03-31T14:40:49;17.40;99.90
6865;DHT22;3471;49.678;8.388;2023-03-31T14:43:20;17.10;99.90
6865;DHT22;3471;49.678;8.388;2023-03-31T14:45:50;16.80;99.90
6865;DHT22;3471;49.678;8.388;2023-03-31T14:48:17;16.50;99.90
6865;DHT22;3471;49.678;8.388;2023-03-31T14:50:45;16.30;99.90
6865;DHT22;3471;49.678;8.388;2023-03-31T14:53:23;16.10;99.90
6865;DHT22;3471;49.678;8.388;2023-03-31T14:56:06;15.60;99.90
6865;DHT22;3471;49.678;8.388;2023-03-31T14:58:35;13.80;99.90
6865;DHT22;3471;49.678;8.388;2023-03-31T15:01:03;12.50;99.90
6865;DHT22;3471;49.678;8.388;2023-03-31T15:03:32;11.70;99.90
6865;DHT22;3471;49.678;8.388;2023-03-31T15:05:59;11.10;99.90
6865;DHT22;3471;49.678;8.388;2023-03-31T15:08:27;10.70;99.90
6865;DHT22;3471;49.678;8.388;2023-03-31T15:11:00;10.60;99.90
6865;DHT22;3471;49.678;8.388;2023-03-31T15:13:41;10.60;99.90
6865;DHT22;3471;49.678;8.388;2023-03-31T15:16:32;10.60;99.90
6865;DHT22;3471;49.678;8.388;2023-03-31T15:19:00;10.60;99.90
6865;DHT22;3471;49.678;8.388;2023-03-31T15:21:30;10.70;99.90
6865;DHT22;3471;49.678;8.388;2023-03-31T15:23:57;10.80;99.90
6865;DHT22;3471;49.678;8.388;2023-03-31T15:26:36;11.10;99.90
6865;DHT22;3471;49.678;8.388;2023-03-31T15:31:36;11.70;99.90
6865;DHT22;3471;49.678;8.388;2023-03-31T15:34:32;12.00;99.90
6865;DHT22;3471;49.678;8.388;2023-03-31T15:36:58;12.30;99.90
6865;DHT22;3471;49.678;8.388;2023-03-31T15:39:27;12.50;99.90
6865;DHT22;3471;49.678;8.388;2023-03-31T15:41:55;12.60;99.90
6865;DHT22;3471;49.678;8.388;2023-03-31T15:49:32;12.70;99.90
6865;DHT22;3471;49.678;8.388;2023-03-31T15:51:58;12.80;99.90
6865;DHT22;3471;49.678;8.388;2023-03-31T15:54:38;12.90;99.90
6865;DHT22;3471;49.678;8.388;2023-03-31T15:57:06;13.00;99.90
6865;DHT22;3471;49.678;8.388;2023-03-31T15:59:49;13.10;99.90
6865;DHT22;3471;49.678;8.388;2023-03-31T16:02:19;13.20;99.90
6865;DHT22;3471;49.678;8.388;2023-03-31T16:04:48;13.20;99.90
6865;DHT22;3471;49.678;8.388;2023-03-31T16:07:26;13.30;99.90
6865;DHT22;3471;49.678;8.388;2023-03-31T16:09:59;13.30;99.90
6865;DHT22;3471;49.678;8.388;2023-03-31T16:12:39;13.40;99.90
6865;DHT22;3471;49.678;8.388;2023-03-31T16:15:12;13.40;99.90
6865;DHT22;3471;49.678;8.388;2023-03-31T16:17:51;13.40;99.90
6865;DHT22;3471;49.678;8.388;2023-03-31T16:20:22;13.40;99.90
6865;DHT22;3471;49.678;8.388;2023-03-31T16:22:51;13.40;99.90
6865;DHT22;3471;49.678;8.388;2023-03-31T16:25:20;13.40;99.90
6865;DHT22;3471;49.678;8.388;2023-03-31T16:27:57;13.30;99.90
6865;DHT22;3471;49.678;8.388;2023-03-31T16:30:44;13.30;99.90
6865;DHT22;3471;49.678;8.388;2023-03-31T16:33:12;13.30;99.90
6865;DHT22;3471;49.678;8.388;2023-03-31T16:35:52;13.30;99.90
6865;DHT22;3471;49.678;8.388;2023-03-31T16:38:21;13.30;99.90
6865;DHT22;3471;49.678;8.388;2023-03-31T16:40:49;13.30;99.90
6865;DHT22;3471;49.678;8.388;2023-03-31T16:43:18;13.40;99.90
6865;DHT22;3471;49.678;8.388;2023-03-31T16:45:52;13.40;99.90
6865;DHT22;3471;49.678;8.388;2023-03-31T16:48:19;13.40;99.90
6865;DHT22;3471;49.678;8.388;2023-03-31T16:50:47;13.30;99.90
6865;DHT22;3471;49.678;8.388;2023-03-31T16:53:14;13.30;99.90
6865;DHT22;3471;49.678;8.388;2023-03-31T16:55:40;13.30;99.90
6865;DHT22;3471;49.678;8.388;2023-03-31T16:58:06;13.30;99.90
6865;DHT22;3471;49.678;8.388;2023-03-31T17:00:34;13.20;99.90
6865;DHT22;3471;49.678;8.388;2023-03-31T17:03:01;13.20;99.90
6865;DHT22;3471;49.678;8.388;2023-03-31T17:05:27;13.20;99.90
6865;DHT22;3471;49.678;8.388;2023-03-31T17:07:55;13.20;99.90
6865;DHT22;3471;49.678;8.388;2023-03-31T17:10:22;13.20;99.90
6865;DHT22;3471;49.678;8.388;2023-03-31T17:12:48;13.10;99.90
6865;DHT22;3471;49.678;8.388;2023-03-31T17:15:14;13.20;99.90
6865;DHT22;3471;49.678;8.388;2023-03-31T17:17:40;13.10;99.90
6865;DHT22;3471;49.678;8.388;2023-03-31T17:20:07;13.20;99.90
6865;DHT22;3471;49.678;8.388;2023-03-31T17:22:33;13.10;99.90
6865;DHT22;3471;49.678;8.388;2023-03-31T17:24:59;13.10;99.90
6865;DHT22;3471;49.678;8.388;2023-03-31T17:27:26;13.20;99.90
6865;DHT22;3471;49.678;8.388;2023-03-31T17:29:52;13.20;99.90
6865;DHT22;3471;49.678;8.388;2023-03-31T17:32:18;13.20;99.90
6865;DHT22;3471;49.678;8.388;2023-03-31T17:34:44;13.10;99.90
6865;DHT22;3471;49.678;8.388;2023-03-31T17:37:12;13.10;99.90
6865;DHT22;3471;49.678;8.388;2023-03-31T17:39:38;13.10;99.90
6865;DHT22;3471;49.678;8.388;2023-03-31T17:42:03;13.00;99.90
6865;DHT22;3471;49.678;8.388;2023-03-31T17:44:29;13.00;99.90
6865;DHT22;3471;49.678;8.388;2023-03-31T17:46:55;13.00;99.90
6865;DHT22;3471;49.678;8.388;2023-03-31T17:49:22;12.90;99.90
6865;DHT22;3471;49.678;8.388;2023-03-31T17:51:48;12.90;99.90
6865;DHT22;3471;49.678;8.388;2023-03-31T17:54:14;12.90;99.90
6865;DHT22;3471;49.678;8.388;2023-03-31T17:56:39;12.90;99.90
6865;DHT22;3471;49.678;8.388;2023-03-31T17:59:06;12.90;99.90
6865;DHT22;3471;49.678;8.388;2023-03-31T18:01:31;12.90;99.90
6865;DHT22;3471;49.678;8.388;2023-03-31T18:03:57;12.90;99.90
6865;DHT22;3471;49.678;8.388;2023-03-31T18:06:23;12.90;99.90
6865;DHT22;3471;49.678;8.388;2023-03-31T18:08:49;12.90;99.90
6865;DHT22;3471;49.678;8.388;2023-03-31T18:11:16;12.80;99.90
6865;DHT22;3471;49.678;8.388;2023-03-31T18:13:42;12.70;99.90
6865;DHT22;3471;49.678;8.388;2023-03-31T18:16:08;12.70;99.90
6865;DHT22;3471;49.678;8.388;2023-03-31T18:18:35;12.70;99.90
6865;DHT22;3471;49.678;8.388;2023-03-31T18:21:09;12.60;99.90
6865;DHT22;3471;49.678;8.388;2023-03-31T18:23:36;12.60;99.90
6865;DHT22;3471;49.678;8.388;2023-03-31T18:26:05;12.60;99.90
6865;DHT22;3471;49.678;8.388;2023-03-31T18:28:31;12.60;99.90
6865;DHT22;3471;49.678;8.388;2023-03-31T18:30:57;12.60;99.90
6865;DHT22;3471;49.678;8.388;2023-03-31T18:33:22;12.60;99.90
6865;DHT22;3471;49.678;8.388;2023-03-31T18:35:48;12.60;99.90
6865;DHT22;3471;49.678;8.388;2023-03-31T18:38:14;12.60;99.90
6865;DHT22;3471;49.678;8.388;2023-03-31T18:40:47;12.60;99.90
6865;DHT22;3471;49.678;8.388;2023-03-31T18:43:14;12.60;99.90
6865;DHT22;3471;49.678;8.388;2023-03-31T18:45:39;12.50;99.90
6865;DHT22;3471;49.678;8.388;2023-03-31T18:48:05;12.50;99.90
6865;DHT22;3471;49.678;8.388;2023-03-31T18:50:30;12.50;99.90
6865;DHT22;3471;49.678;8.388;2023-03-31T18:52:56;12.50;99.90